createdAt,value
2022-12-14T00:01:42.178Z,95.65
2022-12-14T00:04:15.683Z,96.00
2022-12-14T00:06:42.614Z,95.99
2022-12-14T00:09:09.627Z,96.02
2022-12-14T00:11:36.408Z,96.06
2022-12-14T00:14:05.080Z,96.46
2022-12-14T00:16:34.610Z,96.34
2022-12-14T00:19:02.723Z,96.25
2022-12-14T00:21:29.586Z,96.43
2022-12-14T00:23:59.390Z,96.28
2022-12-14T00:26:30.294Z,96.31
2022-12-14T00:28:57.652Z,96.62
2022-12-14T00:31:26.005Z,96.36
2022-12-14T00:33:53.247Z,96.30
2022-12-14T00:36:20.602Z,96.42
2022-12-14T00:38:47.908Z,96.31
2022-12-14T00:41:14.825Z,96.47
2022-12-14T00:43:41.861Z,96.34
2022-12-14T00:46:09.097Z,96.24
2022-12-14T00:48:36.319Z,96.29
2022-12-14T00:51:03.906Z,96.13
2022-12-14T00:53:31.304Z,95.61
2022-12-14T00:56:05.423Z,95.91
2022-12-14T00:58:32.363Z,95.74
2022-12-14T01:01:02.672Z,95.76
2022-12-14T01:03:30.454Z,95.98
2022-12-14T01:05:57.645Z,95.81
2022-12-14T01:08:25.166Z,96.02
2022-12-14T01:10:52.534Z,95.89
2022-12-14T01:13:19.806Z,95.53
2022-12-14T01:15:47.153Z,95.32
2022-12-14T01:18:14.453Z,95.50
2022-12-14T01:20:41.285Z,95.52
2022-12-14T01:23:08.076Z,95.51
2022-12-14T01:25:35.219Z,95.67
2022-12-14T01:28:02.118Z,95.77
2022-12-14T01:30:29.058Z,95.37
2022-12-14T01:32:55.962Z,95.31
2022-12-14T01:35:22.823Z,95.17
2022-12-14T01:37:49.665Z,95.51
2022-12-14T01:40:17.082Z,95.74
2022-12-14T01:42:43.904Z,95.66
2022-12-14T01:45:22.673Z,95.38
2022-12-14T01:47:58.307Z,95.39
2022-12-14T01:50:33.118Z,95.09
2022-12-14T01:53:07.217Z,95.11
2022-12-14T01:55:38.760Z,95.17
2022-12-14T01:58:20.672Z,95.04
2022-12-14T02:00:49.642Z,94.85
2022-12-14T02:03:28.885Z,95.14
2022-12-14T02:06:29.548Z,95.66
2022-12-14T02:08:57.807Z,94.89
2022-12-14T02:11:35.347Z,95.15
2022-12-14T02:14:02.126Z,95.29
2022-12-14T02:16:29.326Z,95.50
2022-12-14T02:18:56.137Z,95.59
2022-12-14T02:21:36.902Z,95.40
2022-12-14T02:24:46.947Z,95.43
2022-12-14T02:27:56.573Z,95.10
2022-12-14T02:30:26.612Z,95.38
2022-12-14T02:33:05.927Z,95.55
2022-12-14T02:35:40.760Z,95.31
2022-12-14T02:38:35.322Z,95.70
2022-12-14T02:41:39.406Z,95.80
2022-12-14T02:44:15.687Z,95.54
2022-12-14T02:47:09.633Z,95.43
2022-12-14T02:50:34.940Z,95.16
2022-12-14T02:53:25.467Z,94.84
2022-12-14T02:55:54.530Z,95.11
2022-12-14T02:58:28.726Z,95.06
2022-12-14T03:00:56.807Z,95.38
2022-12-14T03:03:23.954Z,95.48
2022-12-14T03:06:04.744Z,95.31
2022-12-14T03:08:35.756Z,95.29
2022-12-14T03:11:06.021Z,95.44
2022-12-14T03:13:50.005Z,95.42
2022-12-14T03:16:23.168Z,95.11
2022-12-14T03:19:22.753Z,95.25
2022-12-14T03:21:56.535Z,95.40
2022-12-14T03:24:34.875Z,95.00
2022-12-14T03:27:12.740Z,94.79
2022-12-14T03:29:48.260Z,95.12
2022-12-14T03:32:23.500Z,95.08
2022-12-14T03:35:19.501Z,95.42
2022-12-14T03:37:56.240Z,94.91
2022-12-14T03:40:53.514Z,95.27
2022-12-14T03:43:38.513Z,95.25
2022-12-14T03:46:23.105Z,94.96
2022-12-14T03:48:56.642Z,95.38
2022-12-14T03:51:52.429Z,95.12
2022-12-14T03:54:37.527Z,94.94
2022-12-14T03:57:24.910Z,94.71
2022-12-14T04:00:10.306Z,94.96
2022-12-14T04:03:14.513Z,94.51
2022-12-14T04:06:07.736Z,94.50
2022-12-14T04:08:43.561Z,94.56
2022-12-14T04:11:32.426Z,94.29
2022-12-14T04:14:43.934Z,94.89
2022-12-14T04:17:38.720Z,95.20
2022-12-14T04:20:17.147Z,95.64
2022-12-14T04:22:57.952Z,95.46
2022-12-14T04:25:50.997Z,95.61
2022-12-14T04:28:55.211Z,95.88
2022-12-14T04:31:28.438Z,95.71
2022-12-14T04:33:59.550Z,95.95
2022-12-14T04:36:52.192Z,96.07
2022-12-14T04:39:47.387Z,96.16
2022-12-14T04:42:16.918Z,96.35
2022-12-14T04:44:50.046Z,96.49
2022-12-14T04:47:18.419Z,96.83
2022-12-14T04:50:01.092Z,96.77
2022-12-14T04:52:36.622Z,97.32
2022-12-14T04:55:19.788Z,97.39
2022-12-14T04:58:10.265Z,97.93
2022-12-14T05:00:56.650Z,98.02
2022-12-14T05:03:33.463Z,98.28
2022-12-14T05:06:22.708Z,98.36
2022-12-14T05:09:39.386Z,98.82
2022-12-14T05:12:21.705Z,99.12
2022-12-14T05:15:06.283Z,99.30
2022-12-14T05:17:43.031Z,99.48
2022-12-14T05:20:20.688Z,99.63
2022-12-14T05:22:47.739Z,99.80
2022-12-14T05:25:14.569Z,99.74
2022-12-14T05:27:41.611Z,99.62
2022-12-14T05:30:10.148Z,99.94
2022-12-14T05:32:36.907Z,100.00
2022-12-14T05:35:05.261Z,100.00
2022-12-14T05:37:32.390Z,100.00
2022-12-14T05:39:59.182Z,99.96
2022-12-14T05:42:26.310Z,100.00
2022-12-14T05:44:53.076Z,99.96
2022-12-14T05:47:19.859Z,99.94
2022-12-14T05:49:46.847Z,100.00
2022-12-14T05:52:16.951Z,100.00
2022-12-14T05:54:43.926Z,99.90
2022-12-14T05:57:10.819Z,99.76
2022-12-14T05:59:37.681Z,99.53
2022-12-14T06:02:05.664Z,99.67
2022-12-14T06:04:33.350Z,99.75
2022-12-14T06:07:00.205Z,99.42
2022-12-14T06:09:27.144Z,99.13
2022-12-14T06:11:56.969Z,99.41
2022-12-14T06:14:24.571Z,98.89
2022-12-14T06:16:51.567Z,99.10
2022-12-14T06:19:19.142Z,99.16
2022-12-14T06:21:46.208Z,99.17
2022-12-14T06:24:13.988Z,99.19
2022-12-14T06:26:41.904Z,99.22
2022-12-14T06:29:16.106Z,99.36
2022-12-14T06:31:42.926Z,99.34
2022-12-14T06:34:11.429Z,99.79
2022-12-14T06:36:42.200Z,99.82
2022-12-14T06:39:14.199Z,99.78
2022-12-14T06:41:41.541Z,99.82
2022-12-14T06:44:12.624Z,99.86
2022-12-14T06:46:40.119Z,100.00
2022-12-14T06:49:07.919Z,99.77
2022-12-14T06:51:42.311Z,99.21
2022-12-14T06:54:12.062Z,99.39
2022-12-14T06:56:39.958Z,98.74
2022-12-14T06:59:08.791Z,98.95
2022-12-14T07:01:37.126Z,98.92
2022-12-14T07:04:05.178Z,98.53
2022-12-14T07:06:36.614Z,98.49
2022-12-14T07:09:06.398Z,98.72
2022-12-14T07:11:33.589Z,98.36
2022-12-14T07:14:01.357Z,98.80
2022-12-14T07:16:29.938Z,98.96
2022-12-14T07:18:56.830Z,98.97
2022-12-14T07:21:24.397Z,98.84
2022-12-14T07:23:54.712Z,98.74
2022-12-14T07:26:25.562Z,98.77
2022-12-14T07:28:53.075Z,98.70
2022-12-14T07:31:24.601Z,98.86
2022-12-14T07:33:57.059Z,99.02
2022-12-14T07:36:26.704Z,99.09
2022-12-14T07:38:55.945Z,98.52
2022-12-14T07:41:31.180Z,98.77
2022-12-14T07:44:01.482Z,98.63
2022-12-14T07:46:30.504Z,98.71
2022-12-14T07:48:59.044Z,99.08
2022-12-14T07:51:36.608Z,99.05
2022-12-14T07:54:06.429Z,99.13
2022-12-14T07:56:39.831Z,99.05
2022-12-14T07:59:09.936Z,99.24
2022-12-14T08:01:38.167Z,99.04
2022-12-14T08:04:11.276Z,99.24
2022-12-14T08:06:39.983Z,98.86
2022-12-14T08:09:10.065Z,98.92
2022-12-14T08:11:37.852Z,99.01
2022-12-14T08:14:14.519Z,99.07
2022-12-14T08:16:41.382Z,98.58
2022-12-14T08:19:08.547Z,98.24
2022-12-14T08:21:35.486Z,98.30
2022-12-14T08:24:02.366Z,98.36
2022-12-14T08:26:35.297Z,98.49
2022-12-14T08:29:03.812Z,98.72
2022-12-14T08:31:31.550Z,98.72
2022-12-14T08:33:59.788Z,98.81
2022-12-14T08:36:30.577Z,98.60
2022-12-14T08:39:00.520Z,98.25
2022-12-14T08:41:29.219Z,97.73
2022-12-14T08:43:58.933Z,97.88
2022-12-14T08:46:28.703Z,97.75
2022-12-14T08:48:56.522Z,97.91
2022-12-14T08:51:25.554Z,98.15
2022-12-14T08:53:53.485Z,98.07
2022-12-14T08:56:24.130Z,97.75
2022-12-14T08:58:52.217Z,97.97
2022-12-14T09:01:30.020Z,97.89
2022-12-14T09:04:06.722Z,97.74
2022-12-14T09:06:37.159Z,97.83
2022-12-14T09:09:08.179Z,97.83
2022-12-14T09:11:37.944Z,98.03
2022-12-14T09:14:05.030Z,97.68
2022-12-14T09:16:31.878Z,97.61
2022-12-14T09:18:59.115Z,97.51
2022-12-14T09:21:26.163Z,97.51
2022-12-14T09:23:58.938Z,97.70
2022-12-14T09:26:26.313Z,97.49
2022-12-14T09:28:55.814Z,97.91
2022-12-14T09:31:25.693Z,98.12
2022-12-14T09:33:53.345Z,97.92
2022-12-14T09:36:24.602Z,98.21
2022-12-14T09:38:55.528Z,98.12
2022-12-14T09:41:35.640Z,98.04
2022-12-14T09:44:25.105Z,98.23
2022-12-14T09:46:54.947Z,98.19
2022-12-14T09:49:30.538Z,98.05
2022-12-14T09:52:07.338Z,98.27
2022-12-14T09:54:38.995Z,98.00
2022-12-14T09:57:25.037Z,97.92
2022-12-14T09:59:56.627Z,97.96
2022-12-14T10:03:06.984Z,98.17
2022-12-14T10:05:36.823Z,98.00
2022-12-14T10:08:19.023Z,97.22
2022-12-14T10:11:35.229Z,97.65
2022-12-14T10:14:18.122Z,98.20
2022-12-14T10:17:20.263Z,98.23
2022-12-14T10:19:57.783Z,97.56
2022-12-14T10:22:47.425Z,97.80
2022-12-14T10:25:21.011Z,97.79
2022-12-14T10:28:10.908Z,97.71
2022-12-14T10:30:38.798Z,97.90
2022-12-14T10:33:20.636Z,98.09
2022-12-14T10:35:54.275Z,97.65
2022-12-14T10:38:24.065Z,97.51
2022-12-14T10:40:58.993Z,97.72
2022-12-14T10:44:07.534Z,97.39
2022-12-14T10:47:13.489Z,97.24
2022-12-14T10:49:58.065Z,97.66
2022-12-14T10:52:31.573Z,97.42
2022-12-14T10:55:11.237Z,97.61
2022-12-14T10:57:37.995Z,97.46
2022-12-14T11:00:18.512Z,97.10
2022-12-14T11:02:54.621Z,97.33
2022-12-14T11:05:41.616Z,96.72
2022-12-14T11:08:09.317Z,96.53
2022-12-14T11:10:39.941Z,96.67
2022-12-14T11:13:17.898Z,96.53
2022-12-14T11:15:53.699Z,96.90
2022-12-14T11:18:20.678Z,96.84
2022-12-14T11:20:53.899Z,96.78
2022-12-14T11:23:41.129Z,96.80
2022-12-14T11:26:25.814Z,96.58
2022-12-14T11:28:56.035Z,96.85
2022-12-14T11:31:43.864Z,96.56
2022-12-14T11:34:39.425Z,96.82
2022-12-14T11:37:21.635Z,96.94
2022-12-14T11:39:56.734Z,97.29
2022-12-14T11:42:24.738Z,97.43
2022-12-14T11:44:52.514Z,97.44
2022-12-14T11:47:26.495Z,97.63
2022-12-14T11:49:55.110Z,97.37
2022-12-14T11:52:43.102Z,97.32
2022-12-14T11:55:19.225Z,97.52
2022-12-14T11:57:55.763Z,97.51
2022-12-14T12:00:29.471Z,97.30
2022-12-14T12:03:02.327Z,97.01
2022-12-14T12:05:33.907Z,97.25
2022-12-14T12:08:02.986Z,97.41
2022-12-14T12:10:41.745Z,97.59
2022-12-14T12:13:35.635Z,97.79
2022-12-14T12:16:13.713Z,97.65
2022-12-14T12:18:55.757Z,98.50
2022-12-14T12:21:32.044Z,97.79
2022-12-14T12:24:10.786Z,98.03
2022-12-14T12:26:42.879Z,98.28
2022-12-14T12:29:19.876Z,98.52
2022-12-14T12:32:24.956Z,98.08
2022-12-14T12:35:04.102Z,98.35
2022-12-14T12:37:41.681Z,98.51
2022-12-14T12:40:38.139Z,98.68
2022-12-14T12:43:38.324Z,98.60
2022-12-14T12:47:14.970Z,98.67
2022-12-14T12:49:33.739Z,98.97
2022-12-14T12:52:05.046Z,98.89
2022-12-14T12:54:38.100Z,99.16
2022-12-14T12:57:09.018Z,99.28
2022-12-14T12:59:45.795Z,99.71
2022-12-14T13:02:36.359Z,99.75
2022-12-14T13:05:44.338Z,100.00
2022-12-14T13:08:07.160Z,100.00
2022-12-14T13:11:24.046Z,99.76
2022-12-14T13:13:35.614Z,100.00
2022-12-14T13:16:14.669Z,100.00
2022-12-14T13:19:08.935Z,100.00
2022-12-14T13:21:50.038Z,100.00
2022-12-14T13:24:20.295Z,100.00
2022-12-14T13:27:18.210Z,100.00
2022-12-14T13:30:23.328Z,100.00
2022-12-14T13:33:01.851Z,100.00
2022-12-14T13:36:20.931Z,100.00
2022-12-14T13:39:25.005Z,100.00
2022-12-14T13:42:08.371Z,100.00
2022-12-14T13:45:06.015Z,100.00
2022-12-14T13:47:48.792Z,100.00
2022-12-14T13:50:36.530Z,100.00
2022-12-14T13:53:11.499Z,100.00
2022-12-14T13:55:47.818Z,100.00
2022-12-14T13:58:18.986Z,100.00
2022-12-14T14:00:45.831Z,100.00
2022-12-14T14:03:36.291Z,100.00
2022-12-14T14:06:12.202Z,100.00
2022-12-14T14:08:44.240Z,100.00
2022-12-14T14:11:39.227Z,100.00
2022-12-14T14:14:22.782Z,100.00
2022-12-14T14:16:58.179Z,99.81
2022-12-14T14:19:28.209Z,99.94
2022-12-14T14:22:29.761Z,99.67
2022-12-14T14:25:10.102Z,99.39
2022-12-14T14:27:42.294Z,99.36
2022-12-14T14:30:56.804Z,99.11
2022-12-14T14:33:47.348Z,99.14
2022-12-14T14:36:30.654Z,99.25
2022-12-14T14:39:01.834Z,98.84
2022-12-14T14:41:38.632Z,98.86
2022-12-14T14:44:19.612Z,98.60
2022-12-14T14:46:49.673Z,98.66
2022-12-14T14:49:32.199Z,98.55
2022-12-14T14:52:37.490Z,98.55
2022-12-14T14:55:51.856Z,98.33
2022-12-14T14:58:42.472Z,98.16
2022-12-14T15:01:20.656Z,98.14
2022-12-14T15:04:05.047Z,97.84
2022-12-14T15:06:40.310Z,97.69
2022-12-14T15:09:10.138Z,97.91
2022-12-14T15:11:51.459Z,97.66
2022-12-14T15:14:48.760Z,97.71
2022-12-14T15:17:23.836Z,97.80
2022-12-14T15:20:02.854Z,97.58
2022-12-14T15:22:43.171Z,97.40
2022-12-14T15:25:33.647Z,97.57
2022-12-14T15:28:10.230Z,97.68
2022-12-14T15:30:37.275Z,97.88
2022-12-14T15:33:09.501Z,97.94
2022-12-14T15:35:40.998Z,97.89
2022-12-14T15:38:31.169Z,97.72
2022-12-14T15:41:02.351Z,97.55
2022-12-14T15:43:29.682Z,97.77
2022-12-14T15:46:04.335Z,97.84
2022-12-14T15:48:34.692Z,97.91
2022-12-14T15:51:14.247Z,97.81
2022-12-14T15:53:50.580Z,97.94
2022-12-14T15:56:38.000Z,98.09
2022-12-14T15:59:22.981Z,98.17
2022-12-14T16:02:01.394Z,98.28
2022-12-14T16:04:32.594Z,98.21
2022-12-14T16:07:22.463Z,98.11
2022-12-14T16:09:55.327Z,98.29
2022-12-14T16:12:34.517Z,98.18
2022-12-14T16:15:06.142Z,98.10
2022-12-14T16:17:36.350Z,98.23
2022-12-14T16:20:29.752Z,97.97
2022-12-14T16:23:15.709Z,97.96
2022-12-14T16:25:58.856Z,98.09
2022-12-14T16:28:37.288Z,97.83
2022-12-14T16:31:13.294Z,97.97
2022-12-14T16:33:43.056Z,98.45
2022-12-14T16:36:24.493Z,98.53
2022-12-14T16:39:06.947Z,98.71
2022-12-14T16:42:01.419Z,98.71
2022-12-14T16:44:31.647Z,98.85
2022-12-14T16:47:01.505Z,98.99
2022-12-14T16:49:32.506Z,98.91
2022-12-14T16:52:17.572Z,98.52
2022-12-14T16:55:13.475Z,98.88
2022-12-14T16:57:47.763Z,98.93
2022-12-14T17:00:29.674Z,98.85
2022-12-14T17:03:25.869Z,98.67
2022-12-14T17:05:57.398Z,98.49
2022-12-14T17:08:24.508Z,97.90
2022-12-14T17:10:51.519Z,98.04
2022-12-14T17:13:18.988Z,98.09
2022-12-14T17:16:06.268Z,97.78
2022-12-14T17:18:38.638Z,97.33
2022-12-14T17:21:08.747Z,96.97
2022-12-14T17:23:40.319Z,97.27
2022-12-14T17:26:07.122Z,97.39
2022-12-14T17:28:34.917Z,97.21
2022-12-14T17:31:03.610Z,97.38
2022-12-14T17:33:32.007Z,97.24
2022-12-14T17:35:59.206Z,97.47
2022-12-14T17:38:26.285Z,97.23
2022-12-14T17:40:56.692Z,96.79
2022-12-14T17:43:27.974Z,96.77
2022-12-14T17:45:55.483Z,96.77
2022-12-14T17:48:22.427Z,96.95
2022-12-14T17:50:50.408Z,96.79
2022-12-14T17:53:30.195Z,97.13
2022-12-14T17:55:57.466Z,97.27
2022-12-14T17:58:24.463Z,97.33
2022-12-14T18:01:00.501Z,97.56
2022-12-14T18:03:31.088Z,97.65
2022-12-14T18:05:59.463Z,97.88
2022-12-14T18:08:26.975Z,97.58
2022-12-14T18:11:01.626Z,97.44
2022-12-14T18:13:31.907Z,97.35
2022-12-14T18:16:00.666Z,96.97
2022-12-14T18:18:29.639Z,96.92
2022-12-14T18:21:02.996Z,96.54
2022-12-14T18:23:31.721Z,96.81
2022-12-14T18:26:00.668Z,96.78
2022-12-14T18:28:27.529Z,97.46
2022-12-14T18:31:07.597Z,97.52
2022-12-14T18:33:35.473Z,97.64
2022-12-14T18:36:02.690Z,97.47
2022-12-14T18:38:32.537Z,97.46
2022-12-14T18:41:01.976Z,97.65
2022-12-14T18:43:30.470Z,97.46
2022-12-14T18:45:58.844Z,97.13
2022-12-14T18:48:25.952Z,96.97
2022-12-14T18:50:54.994Z,97.03
2022-12-14T18:53:23.973Z,96.70
2022-12-14T18:55:50.986Z,96.93
2022-12-14T18:58:27.155Z,97.02
2022-12-14T19:00:58.483Z,97.21
2022-12-14T19:03:27.089Z,97.32
2022-12-14T19:06:34.880Z,96.92
2022-12-14T19:08:52.031Z,96.84
2022-12-14T19:11:42.785Z,96.87
2022-12-14T19:14:10.330Z,97.29
2022-12-14T19:16:37.305Z,96.89
2022-12-14T19:19:04.181Z,96.67
2022-12-14T19:21:31.753Z,96.42
2022-12-14T19:23:59.919Z,96.11
2022-12-14T19:26:28.665Z,96.35
2022-12-14T19:28:56.364Z,96.14
2022-12-14T19:31:23.488Z,96.29
2022-12-14T19:33:50.449Z,96.28
2022-12-14T19:36:17.583Z,96.20
2022-12-14T19:38:45.008Z,96.11
2022-12-14T19:41:20.345Z,96.23
2022-12-14T19:43:48.445Z,96.73
2022-12-14T19:46:17.696Z,96.12
2022-12-14T19:48:45.261Z,96.04
2022-12-14T19:51:13.701Z,95.85
2022-12-14T19:53:43.020Z,96.00
2022-12-14T19:56:10.990Z,95.94
2022-12-14T19:58:39.907Z,96.07
2022-12-14T20:01:14.380Z,95.94
2022-12-14T20:03:41.778Z,96.39
2022-12-14T20:06:10.222Z,96.29
2022-12-14T20:08:37.531Z,96.09
2022-12-14T20:11:12.250Z,95.91
2022-12-14T20:13:42.378Z,96.23
2022-12-14T20:16:19.269Z,96.53
2022-12-14T20:18:48.130Z,96.26
2022-12-14T20:21:22.214Z,96.65
2022-12-14T20:23:54.631Z,96.49
2022-12-14T20:26:23.880Z,96.96
2022-12-14T20:28:54.705Z,97.19
2022-12-14T20:31:23.047Z,97.14
2022-12-14T20:33:50.681Z,96.91
2022-12-14T20:36:19.366Z,96.75
2022-12-14T20:38:49.354Z,96.54
2022-12-14T20:41:17.746Z,96.35
2022-12-14T20:43:49.094Z,96.88
2022-12-14T20:46:39.226Z,97.02
2022-12-14T20:49:18.749Z,97.02
2022-12-14T20:51:49.627Z,97.09
2022-12-14T20:54:23.284Z,96.50
2022-12-14T20:56:51.325Z,96.45
2022-12-14T20:59:18.368Z,96.52
2022-12-14T21:01:51.866Z,96.24
2022-12-14T21:04:22.536Z,96.51
2022-12-14T21:06:49.594Z,95.98
2022-12-14T21:09:18.140Z,95.98
2022-12-14T21:12:08.239Z,96.68
2022-12-14T21:14:39.945Z,96.49
2022-12-14T21:17:07.208Z,96.26
2022-12-14T21:19:36.190Z,96.20
2022-12-14T21:22:06.007Z,96.34
2022-12-14T21:25:01.934Z,96.20
2022-12-14T21:27:28.457Z,96.21
2022-12-14T21:29:55.522Z,96.68
2022-12-14T21:32:22.943Z,96.50
2022-12-14T21:34:49.811Z,96.45
2022-12-14T21:37:16.934Z,96.52
2022-12-14T21:39:49.040Z,96.39
2022-12-14T21:42:20.814Z,95.83
2022-12-14T21:44:50.910Z,95.92
2022-12-14T21:47:28.250Z,95.98
2022-12-14T21:49:56.457Z,96.17
2022-12-14T21:52:27.216Z,96.09
2022-12-14T21:54:54.301Z,96.10
2022-12-14T21:57:42.958Z,96.33
2022-12-14T22:00:17.045Z,96.61
2022-12-14T22:02:44.510Z,96.63
2022-12-14T22:05:11.423Z,95.93
2022-12-14T22:07:38.258Z,96.10
2022-12-14T22:10:05.985Z,96.12
2022-12-14T22:12:32.825Z,96.04
2022-12-14T22:14:59.781Z,96.04
2022-12-14T22:17:26.972Z,95.81
2022-12-14T22:19:55.484Z,95.86
2022-12-14T22:22:23.247Z,95.95
2022-12-14T22:24:51.598Z,95.33
2022-12-14T22:27:19.569Z,95.44
2022-12-14T22:29:46.525Z,95.70
2022-12-14T22:32:13.517Z,95.42
2022-12-14T22:34:40.505Z,95.95
2022-12-14T22:37:07.382Z,95.45
2022-12-14T22:39:34.647Z,95.61
2022-12-14T22:42:01.426Z,95.20
2022-12-14T22:44:28.678Z,95.13
2022-12-14T22:46:55.594Z,95.37
2022-12-14T22:49:22.526Z,95.53
2022-12-14T22:51:50.715Z,95.57
2022-12-14T22:54:22.646Z,95.49
2022-12-14T22:57:03.513Z,95.61
2022-12-14T22:59:48.550Z,95.25
2022-12-14T23:02:15.862Z,95.54
2022-12-14T23:04:43.100Z,95.10
2022-12-14T23:07:10.684Z,95.45
2022-12-14T23:09:56.194Z,94.95
2022-12-14T23:12:41.482Z,95.14
2022-12-14T23:15:27.606Z,94.79
2022-12-14T23:18:19.493Z,94.46
2022-12-14T23:21:04.948Z,94.59
2022-12-14T23:23:50.077Z,94.80
2022-12-14T23:26:35.688Z,94.90
2022-12-14T23:29:20.918Z,94.29
2022-12-14T23:32:06.164Z,94.17
2022-12-14T23:34:51.620Z,94.40
2022-12-14T23:37:37.040Z,94.32
2022-12-14T23:40:23.923Z,94.45
2022-12-14T23:43:09.126Z,94.42
2022-12-14T23:45:54.373Z,94.51
2022-12-14T23:48:40.245Z,94.74
2022-12-14T23:51:25.543Z,94.23
2022-12-14T23:54:11.592Z,94.25
2022-12-14T23:56:56.994Z,94.12
2022-12-14T23:59:42.538Z,94.15
